sensor_id;sensor_type;location;lat;lon;timestamp;pressure;altitude;pressure_sealevel;temperature;humidity
21111;BME280;10713;51.912;4.494;2023-04-27T00:00:13;102101.88;;;5.51;100.00
21111;BME280;10713;51.912;4.494;2023-04-27T00:02:39;102104.50;;;5.45;100.00
21111;BME280;10713;51.912;4.494;2023-04-27T00:05:04;102105.34;;;5.42;100.00
21111;BME280;10713;51.912;4.494;2023-04-27T00:07:30;102108.84;;;5.40;100.00
21111;BME280;10713;51.912;4.494;2023-04-27T00:09:56;102102.72;;;5.36;100.00
21111;BME280;10713;51.912;4.494;2023-04-27T00:12:22;102105.34;;;5.33;100.00
21111;BME280;10713;51.912;4.494;2023-04-27T00:14:47;102109.69;;;5.31;100.00
21111;BME280;10713;51.912;4.494;2023-04-27T00:17:12;102107.94;;;5.32;100.00
21111;BME280;10713;51.912;4.494;2023-04-27T00:19:38;102115.78;;;5.32;100.00
21111;BME280;10713;51.912;4.494;2023-04-27T00:22:06;102118.41;;;5.35;100.00
21111;BME280;10713;51.912;4.494;2023-04-27T00:24:31;102111.44;;;5.34;100.00
21111;BME280;10713;51.912;4.494;2023-04-27T00:26:56;102114.03;;;5.29;100.00
21111;BME280;10713;51.912;4.494;2023-04-27T00:29:22;102107.94;;;5.26;100.00
21111;BME280;10713;51.912;4.494;2023-04-27T00:31:47;102103.56;;;5.23;100.00
21111;BME280;10713;51.912;4.494;2023-04-27T00:34:12;102105.31;;;5.23;100.00
21111;BME280;10713;51.912;4.494;2023-04-27T00:36:38;102107.03;;;5.19;100.00
21111;BME280;10713;51.912;4.494;2023-04-27T00:39:03;102105.28;;;5.16;100.00
21111;BME280;10713;51.912;4.494;2023-04-27T00:41:30;102099.19;;;5.13;100.00
21111;BME280;10713;51.912;4.494;2023-04-27T00:43:56;102100.03;;;5.10;100.00
21111;BME280;10713;51.912;4.494;2023-04-27T00:46:22;102097.41;;;5.09;100.00
21111;BME280;10713;51.912;4.494;2023-04-27T00:48:48;102098.25;;;5.06;100.00
21111;BME280;10713;51.912;4.494;2023-04-27T00:51:14;102099.16;;;5.05;100.00
21111;BME280;10713;51.912;4.494;2023-04-27T00:53:40;102097.38;;;5.03;100.00
21111;BME280;10713;51.912;4.494;2023-04-27T00:56:06;102098.28;;;5.05;100.00
21111;BME280;10713;51.912;4.494;2023-04-27T00:58:32;102104.41;;;5.07;100.00
21111;BME280;10713;51.912;4.494;2023-04-27T01:00:58;102095.66;;;5.11;100.00
21111;BME280;10713;51.912;4.494;2023-04-27T01:03:23;102096.59;;;5.25;100.00
21111;BME280;10713;51.912;4.494;2023-04-27T01:05:49;102093.09;;;5.28;100.00
21111;BME280;10713;51.912;4.494;2023-04-27T01:08:15;102097.47;;;5.33;100.00
21111;BME280;10713;51.912;4.494;2023-04-27T01:10:40;102087.03;;;5.42;100.00
21111;BME280;10713;51.912;4.494;2023-04-27T01:13:06;102080.03;;;5.35;100.00
21111;BME280;10713;51.912;4.494;2023-04-27T01:15:31;102083.50;;;5.28;100.00
21111;BME280;10713;51.912;4.494;2023-04-27T01:18:00;102073.88;;;5.23;100.00
21111;BME280;10713;51.912;4.494;2023-04-27T01:20:26;102076.53;;;5.27;100.00
21111;BME280;10713;51.912;4.494;2023-04-27T01:22:55;102080.91;;;5.40;100.00
21111;BME280;10713;51.912;4.494;2023-04-27T01:25:21;102082.69;;;5.45;100.00
21111;BME280;10713;51.912;4.494;2023-04-27T01:27:46;102073.03;;;5.43;100.00
21111;BME280;10713;51.912;4.494;2023-04-27T01:30:11;102068.69;;;5.39;100.00
21111;BME280;10713;51.912;4.494;2023-04-27T01:32:37;102073.03;;;5.25;100.00
21111;BME280;10713;51.912;4.494;2023-04-27T01:35:04;102076.47;;;5.15;100.00
21111;BME280;10713;51.912;4.494;2023-04-27T01:37:30;102071.22;;;5.09;100.00
21111;BME280;10713;51.912;4.494;2023-04-27T01:39:55;102066.00;;;5.04;100.00
21111;BME280;10713;51.912;4.494;2023-04-27T01:42:20;102075.56;;;5.02;100.00
21111;BME280;10713;51.912;4.494;2023-04-27T01:44:47;102072.94;;;4.97;100.00
21111;BME280;10713;51.912;4.494;2023-04-27T01:47:14;102068.59;;;4.96;100.00
21111;BME280;10713;51.912;4.494;2023-04-27T01:49:39;102072.94;;;4.97;100.00
21111;BME280;10713;51.912;4.494;2023-04-27T01:52:05;102069.44;;;4.97;100.00
21111;BME280;10713;51.912;4.494;2023-04-27T01:54:30;102074.69;;;4.95;100.00
21111;BME280;10713;51.912;4.494;2023-04-27T01:56:56;102076.41;;;4.90;100.00
21111;BME280;10713;51.912;4.494;2023-04-27T01:59:22;102073.78;;;4.89;100.00
21111;BME280;10713;51.912;4.494;2023-04-27T02:01:48;102062.44;;;4.91;100.00
21111;BME280;10713;51.912;4.494;2023-04-27T02:04:13;102074.63;;;4.86;100.00
21111;BME280;10713;51.912;4.494;2023-04-27T02:06:39;102068.50;;;4.80;100.00
21111;BME280;10713;51.912;4.494;2023-04-27T02:09:05;102076.31;;;4.70;100.00
21111;BME280;10713;51.912;4.494;2023-04-27T02:11:30;102067.56;;;4.61;100.00
21111;BME280;10713;51.912;4.494;2023-04-27T02:13:56;102054.44;;;4.58;100.00
21111;BME280;10713;51.912;4.494;2023-04-27T02:16:21;102052.75;;;4.58;100.00
21111;BME280;10713;51.912;4.494;2023-04-27T02:18:47;102057.97;;;4.60;100.00
21111;BME280;10713;51.912;4.494;2023-04-27T02:21:13;102057.06;;;4.53;100.00
21111;BME280;10713;51.912;4.494;2023-04-27T02:23:38;102061.38;;;4.45;100.00
21111;BME280;10713;51.912;4.494;2023-04-27T02:26:04;102058.72;;;4.43;100.00
21111;BME280;10713;51.912;4.494;2023-04-27T02:28:30;102059.56;;;4.38;100.00
21111;BME280;10713;51.912;4.494;2023-04-27T02:30:56;102056.94;;;4.35;100.00
21111;BME280;10713;51.912;4.494;2023-04-27T02:33:21;102059.56;;;4.33;100.00
21111;BME280;10713;51.912;4.494;2023-04-27T02:35:47;102052.63;;;4.35;100.00
21111;BME280;10713;51.912;4.494;2023-04-27T02:38:12;102058.75;;;4.42;100.00
21111;BME280;10713;51.912;4.494;2023-04-27T02:40:37;102055.28;;;4.44;100.00
21111;BME280;10713;51.912;4.494;2023-04-27T02:43:03;102049.22;;;4.55;100.00
21111;BME280;10713;51.912;4.494;2023-04-27T02:45:28;102058.81;;;4.53;100.00
21111;BME280;10713;51.912;4.494;2023-04-27T02:47:54;102056.16;;;4.51;100.00
21111;BME280;10713;51.912;4.494;2023-04-27T02:50:19;102054.41;;;4.47;100.00
21111;BME280;10713;51.912;4.494;2023-04-27T02:52:44;102058.78;;;4.46;100.00
21111;BME280;10713;51.912;4.494;2023-04-27T02:55:10;102061.38;;;4.45;100.00
21111;BME280;10713;51.912;4.494;2023-04-27T02:57:35;102055.25;;;4.41;100.00
21111;BME280;10713;51.912;4.494;2023-04-27T03:00:02;102055.25;;;4.41;100.00
21111;BME280;10713;51.912;4.494;2023-04-27T03:02:29;102061.34;;;4.39;100.00
21111;BME280;10713;51.912;4.494;2023-04-27T03:04:54;102055.25;;;4.38;100.00
21111;BME280;10713;51.912;4.494;2023-04-27T03:07:21;102061.41;;;4.54;100.00
21111;BME280;10713;51.912;4.494;2023-04-27T03:09:46;102065.81;;;4.63;100.00
21111;BME280;10713;51.912;4.494;2023-04-27T03:12:11;102057.97;;;4.66;100.00
21111;BME280;10713;51.912;4.494;2023-04-27T03:14:36;102054.50;;;4.64;100.00
21111;BME280;10713;51.912;4.494;2023-04-27T03:17:02;102065.88;;;4.77;100.00
21111;BME280;10713;51.912;4.494;2023-04-27T03:19:28;102057.16;;;4.74;100.00
21111;BME280;10713;51.912;4.494;2023-04-27T03:21:53;102066.75;;;4.72;100.00
21111;BME280;10713;51.912;4.494;2023-04-27T03:24:18;102064.13;;;4.69;100.00
21111;BME280;10713;51.912;4.494;2023-04-27T03:26:44;102066.72;;;4.68;100.00
21111;BME280;10713;51.912;4.494;2023-04-27T03:29:09;102065.00;;;4.76;100.00
21111;BME280;10713;51.912;4.494;2023-04-27T03:31:34;102066.75;;;4.69;100.00
21111;BME280;10713;51.912;4.494;2023-04-27T03:34:00;102063.19;;;4.63;100.00
21111;BME280;10713;51.912;4.494;2023-04-27T03:36:25;102072.81;;;4.65;100.00
21111;BME280;10713;51.912;4.494;2023-04-27T03:38:51;102068.38;;;4.52;100.00
21111;BME280;10713;51.912;4.494;2023-04-27T03:41:16;102073.59;;;4.47;100.00
21111;BME280;10713;51.912;4.494;2023-04-27T03:43:42;102071.78;;;4.36;100.00
21111;BME280;10713;51.912;4.494;2023-04-27T03:46:07;102080.44;;;4.28;100.00
21111;BME280;10713;51.912;4.494;2023-04-27T03:48:32;102079.53;;;4.22;100.00
21111;BME280;10713;51.912;4.494;2023-04-27T03:50:59;102078.63;;;4.20;100.00
21111;BME280;10713;51.912;4.494;2023-04-27T03:53:25;102077.78;;;4.18;100.00
21111;BME280;10713;51.912;4.494;2023-04-27T03:55:51;102081.19;;;4.11;100.00
21111;BME280;10713;51.912;4.494;2023-04-27T03:58:16;102085.50;;;4.05;100.00
21111;BME280;10713;51.912;4.494;2023-04-27T04:00:42;102095.91;;;3.99;100.00
21111;BME280;10713;51.912;4.494;2023-04-27T04:03:07;102087.22;;;3.99;100.00
21111;BME280;10713;51.912;4.494;2023-04-27T04:05:33;102096.78;;;3.95;100.00
21111;BME280;10713;51.912;4.494;2023-04-27T04:07:58;102096.75;;;3.94;100.00
21111;BME280;10713;51.912;4.494;2023-04-27T04:10:24;102093.22;;;3.89;100.00
21111;BME280;10713;51.912;4.494;2023-04-27T04:12:50;102097.56;;;3.87;100.00
21111;BME280;10713;51.912;4.494;2023-04-27T04:15:16;102098.44;;;3.87;100.00
21111;BME280;10713;51.912;4.494;2023-04-27T04:17:41;102106.28;;;3.87;100.00
21111;BME280;10713;51.912;4.494;2023-04-27T04:20:07;102088.84;;;3.88;100.00
21111;BME280;10713;51.912;4.494;2023-04-27T04:22:33;102094.09;;;3.91;100.00
21111;BME280;10713;51.912;4.494;2023-04-27T04:24:59;102103.69;;;3.92;100.00
21111;BME280;10713;51.912;4.494;2023-04-27T04:27:24;102097.63;;;3.93;100.00
21111;BME280;10713;51.912;4.494;2023-04-27T04:29:50;102093.28;;;3.96;100.00
21111;BME280;10713;51.912;4.494;2023-04-27T04:32:15;102101.19;;;4.04;100.00
21111;BME280;10713;51.912;4.494;2023-04-27T04:34:43;102099.47;;;4.09;100.00
21111;BME280;10713;51.912;4.494;2023-04-27T04:37:08;102092.53;;;4.10;100.00
21111;BME280;10713;51.912;4.494;2023-04-27T04:39:33;102082.94;;;4.12;100.00
21111;BME280;10713;51.912;4.494;2023-04-27T04:41:59;102093.44;;;4.16;100.00
21111;BME280;10713;51.912;4.494;2023-04-27T04:44:24;102105.81;;;4.43;100.00
21111;BME280;10713;51.912;4.494;2023-04-27T04:46:50;102109.50;;;4.79;100.00
21111;BME280;10713;51.912;4.494;2023-04-27T04:49:16;102107.91;;;5.16;100.00
21111;BME280;10713;51.912;4.494;2023-04-27T04:51:42;102100.13;;;5.49;100.00
21111;BME280;10713;51.912;4.494;2023-04-27T04:54:09;102110.66;;;5.76;100.00
21111;BME280;10713;51.912;4.494;2023-04-27T04:56:34;102104.56;;;6.03;100.00
21111;BME280;10713;51.912;4.494;2023-04-27T04:59:00;102098.44;;;6.06;100.00
21111;BME280;10713;51.912;4.494;2023-04-27T05:01:26;102094.97;;;6.07;100.00
21111;BME280;10713;51.912;4.494;2023-04-27T05:03:51;102101.09;;;5.97;100.00
21111;BME280;10713;51.912;4.494;2023-04-27T05:06:16;102107.16;;;5.73;100.00
21111;BME280;10713;51.912;4.494;2023-04-27T05:08:42;102099.28;;;5.59;100.00
21111;BME280;10713;51.912;4.494;2023-04-27T05:11:07;102109.78;;;5.71;100.00
21111;BME280;10713;51.912;4.494;2023-04-27T05:13:32;102109.81;;;5.90;100.00
21111;BME280;10713;51.912;4.494;2023-04-27T05:15:58;102110.69;;;6.13;100.00
21111;BME280;10713;51.912;4.494;2023-04-27T05:18:23;102115.81;;;6.71;100.00
21111;BME280;10713;51.912;4.494;2023-04-27T05:20:48;102108.59;;;7.30;100.00
21111;BME280;10713;51.912;4.494;2023-04-27T05:23:14;102115.31;;;7.76;100.00
21111;BME280;10713;51.912;4.494;2023-04-27T05:25:39;102107.31;;;7.91;100.00
21111;BME280;10713;51.912;4.494;2023-04-27T05:28:08;102105.41;;;8.10;100.00
21111;BME280;10713;51.912;4.494;2023-04-27T05:30:34;102106.34;;;8.01;100.00
21111;BME280;10713;51.912;4.494;2023-04-27T05:32:59;102097.69;;;7.85;100.00
21111;BME280;10713;51.912;4.494;2023-04-27T05:35:25;102087.19;;;7.87;100.00
21111;BME280;10713;51.912;4.494;2023-04-27T05:37:50;102092.34;;;7.99;100.00
21111;BME280;10713;51.912;4.494;2023-04-27T05:40:16;102092.31;;;8.02;100.00
21111;BME280;10713;51.912;4.494;2023-04-27T05:42:41;102084.34;;;8.08;100.00
21111;BME280;10713;51.912;4.494;2023-04-27T05:45:07;102084.88;;;8.50;100.00
21111;BME280;10713;51.912;4.494;2023-04-27T05:47:32;102080.38;;;9.27;100.00
21111;BME280;10713;51.912;4.494;2023-04-27T05:49:58;102082.81;;;9.98;100.00
21111;BME280;10713;51.912;4.494;2023-04-27T05:52:23;102083.78;;;10.45;100.00
21111;BME280;10713;51.912;4.494;2023-04-27T05:54:54;102075.53;;;11.03;100.00
21111;BME280;10713;51.912;4.494;2023-04-27T05:57:20;102074.09;;;11.66;100.00
21111;BME280;10713;51.912;4.494;2023-04-27T05:59:46;102076.78;;;12.02;100.00
21111;BME280;10713;51.912;4.494;2023-04-27T06:02:11;102076.19;;;12.24;100.00
21111;BME280;10713;51.912;4.494;2023-04-27T06:04:36;102074.72;;;12.46;100.00
21111;BME280;10713;51.912;4.494;2023-04-27T06:07:12;102075.59;;;13.07;100.00
21111;BME280;10713;51.912;4.494;2023-04-27T06:09:38;102075.28;;;13.74;100.00
21111;BME280;10713;51.912;4.494;2023-04-27T06:12:04;102072.66;;;14.26;100.00
21111;BME280;10713;51.912;4.494;2023-04-27T06:14:31;102075.47;;;14.47;100.00
21111;BME280;10713;51.912;4.494;2023-04-27T06:16:57;102071.50;;;14.83;99.06
21111;BME280;10713;51.912;4.494;2023-04-27T06:19:22;102071.84;;;14.98;91.27
21111;BME280;10713;51.912;4.494;2023-04-27T06:21:49;102057.25;;;14.61;82.23
21111;BME280;10713;51.912;4.494;2023-04-27T06:24:15;102069.53;;;14.13;76.98
21111;BME280;10713;51.912;4.494;2023-04-27T06:26:40;102066.50;;;13.46;81.85
21111;BME280;10713;51.912;4.494;2023-04-27T06:29:05;102065.44;;;13.51;77.08
21111;BME280;10713;51.912;4.494;2023-04-27T06:31:32;102062.78;;;13.51;78.54
21111;BME280;10713;51.912;4.494;2023-04-27T06:33:58;102052.16;;;14.05;71.25
21111;BME280;10713;51.912;4.494;2023-04-27T06:36:24;102060.25;;;14.27;65.84
21111;BME280;10713;51.912;4.494;2023-04-27T06:38:51;102059.53;;;14.47;66.80
21111;BME280;10713;51.912;4.494;2023-04-27T06:41:19;102047.50;;;14.61;63.81
21111;BME280;10713;51.912;4.494;2023-04-27T06:43:45;102052.59;;;14.91;62.54
21111;BME280;10713;51.912;4.494;2023-04-27T06:46:10;102045.28;;;15.20;59.54
21111;BME280;10713;51.912;4.494;2023-04-27T06:48:36;102057.72;;;15.63;57.84
21111;BME280;10713;51.912;4.494;2023-04-27T06:51:01;102056.78;;;15.64;55.83
21111;BME280;10713;51.912;4.494;2023-04-27T06:53:26;102057.84;;;15.60;53.58
21111;BME280;10713;51.912;4.494;2023-04-27T06:55:51;102063.97;;;15.62;53.92
21111;BME280;10713;51.912;4.494;2023-04-27T06:58:17;102057.09;;;15.79;54.31
21111;BME280;10713;51.912;4.494;2023-04-27T07:00:42;102050.94;;;16.19;53.50
21111;BME280;10713;51.912;4.494;2023-04-27T07:03:08;102047.75;;;15.90;51.61
21111;BME280;10713;51.912;4.494;2023-04-27T07:05:33;102060.63;;;15.57;51.74
21111;BME280;10713;51.912;4.494;2023-04-27T07:07:59;102055.97;;;15.84;51.00
21111;BME280;10713;51.912;4.494;2023-04-27T07:10:24;102064.28;;;15.54;49.40
21111;BME280;10713;51.912;4.494;2023-04-27T07:12:50;102064.53;;;15.48;50.06
21111;BME280;10713;51.912;4.494;2023-04-27T07:15:15;102064.53;;;15.26;49.61
21111;BME280;10713;51.912;4.494;2023-04-27T07:17:41;102047.66;;;15.71;50.91
21111;BME280;10713;51.912;4.494;2023-04-27T07:20:06;102047.22;;;16.03;49.98
21111;BME280;10713;51.912;4.494;2023-04-27T07:22:32;102056.88;;;15.63;48.96
21111;BME280;10713;51.912;4.494;2023-04-27T07:24:58;102056.19;;;15.58;49.83
21111;BME280;10713;51.912;4.494;2023-04-27T07:27:23;102057.03;;;15.36;49.43
21111;BME280;10713;51.912;4.494;2023-04-27T07:29:50;102059.03;;;15.07;50.37
21111;BME280;10713;51.912;4.494;2023-04-27T07:32:16;102064.72;;;14.50;52.11
21111;BME280;10713;51.912;4.494;2023-04-27T07:34:42;102068.94;;;15.04;51.90
21111;BME280;10713;51.912;4.494;2023-04-27T07:37:08;102057.06;;;15.80;51.00
21111;BME280;10713;51.912;4.494;2023-04-27T07:39:33;102051.94;;;16.16;49.95
21111;BME280;10713;51.912;4.494;2023-04-27T07:41:58;102050.84;;;16.61;48.55
21111;BME280;10713;51.912;4.494;2023-04-27T07:44:24;102057.50;;;15.69;49.04
21111;BME280;10713;51.912;4.494;2023-04-27T07:46:49;102056.03;;;15.39;48.71
21111;BME280;10713;51.912;4.494;2023-04-27T07:49:18;102048.66;;;15.01;50.21
21111;BME280;10713;51.912;4.494;2023-04-27T07:51:44;102057.97;;;14.90;49.78
21111;BME280;10713;51.912;4.494;2023-04-27T07:54:09;102060.69;;;14.39;49.64
21111;BME280;10713;51.912;4.494;2023-04-27T07:56:35;102061.19;;;13.72;51.44
21111;BME280;10713;51.912;4.494;2023-04-27T07:59:00;102056.75;;;13.73;53.65
21111;BME280;10713;51.912;4.494;2023-04-27T08:01:25;102070.69;;;14.06;51.17
21111;BME280;10713;51.912;4.494;2023-04-27T08:03:51;102054.72;;;13.81;51.71
21111;BME280;10713;51.912;4.494;2023-04-27T08:06:17;102051.09;;;13.57;50.81
21111;BME280;10713;51.912;4.494;2023-04-27T08:08:43;102041.91;;;13.94;52.78
21111;BME280;10713;51.912;4.494;2023-04-27T08:11:11;102047.28;;;14.17;51.53
21111;BME280;10713;51.912;4.494;2023-04-27T08:13:37;102041.84;;;13.95;51.14
21111;BME280;10713;51.912;4.494;2023-04-27T08:16:02;102041.81;;;13.97;52.00
21111;BME280;10713;51.912;4.494;2023-04-27T08:18:28;102021.38;;;13.99;53.17
21111;BME280;10713;51.912;4.494;2023-04-27T08:20:53;102035.03;;;14.87;51.13
21111;BME280;10713;51.912;4.494;2023-04-27T08:23:19;102049.13;;;15.35;48.79
21111;BME280;10713;51.912;4.494;2023-04-27T08:25:45;102033.53;;;15.69;48.78
21111;BME280;10713;51.912;4.494;2023-04-27T08:28:11;102033.69;;;16.07;47.49
21111;BME280;10713;51.912;4.494;2023-04-27T08:30:36;102034.81;;;16.42;46.51
21111;BME280;10713;51.912;4.494;2023-04-27T08:33:02;102037.28;;;16.86;45.71
21111;BME280;10713;51.912;4.494;2023-04-27T08:35:27;102031.09;;;17.41;45.25
21111;BME280;10713;51.912;4.494;2023-04-27T08:37:52;102029.78;;;16.95;43.90
21111;BME280;10713;51.912;4.494;2023-04-27T08:40:18;102037.03;;;16.33;45.57
21111;BME280;10713;51.912;4.494;2023-04-27T08:42:54;102040.50;;;16.54;44.33
21111;BME280;10713;51.912;4.494;2023-04-27T08:45:21;102032.66;;;16.51;45.18
21111;BME280;10713;51.912;4.494;2023-04-27T08:47:47;102036.56;;;16.62;45.01
21111;BME280;10713;51.912;4.494;2023-04-27T08:50:12;102034.09;;;15.77;45.03
21111;BME280;10713;51.912;4.494;2023-04-27T08:52:38;102033.72;;;15.21;45.89
21111;BME280;10713;51.912;4.494;2023-04-27T08:55:03;102036.25;;;14.78;45.65
21111;BME280;10713;51.912;4.494;2023-04-27T08:57:29;102036.94;;;14.83;46.08
21111;BME280;10713;51.912;4.494;2023-04-27T08:59:58;102030.28;;;14.72;46.29
21111;BME280;10713;51.912;4.494;2023-04-27T09:02:25;102027.69;;;14.94;45.87
21111;BME280;10713;51.912;4.494;2023-04-27T09:04:53;102017.56;;;15.03;44.60
21111;BME280;10713;51.912;4.494;2023-04-27T09:07:19;102018.81;;;14.93;44.75
21111;BME280;10713;51.912;4.494;2023-04-27T09:09:44;102039.59;;;14.60;44.66
21111;BME280;10713;51.912;4.494;2023-04-27T09:12:16;102031.13;;;14.24;44.88
21111;BME280;10713;51.912;4.494;2023-04-27T09:14:42;102035.69;;;13.95;44.58
21111;BME280;10713;51.912;4.494;2023-04-27T09:17:08;102029.91;;;14.09;44.95
21111;BME280;10713;51.912;4.494;2023-04-27T09:19:33;102028.53;;;13.97;45.13
21111;BME280;10713;51.912;4.494;2023-04-27T09:22:09;102029.47;;;13.69;45.59
21111;BME280;10713;51.912;4.494;2023-04-27T09:24:35;102033.16;;;13.65;46.29
21111;BME280;10713;51.912;4.494;2023-04-27T09:27:02;102031.34;;;13.66;46.63
21111;BME280;10713;51.912;4.494;2023-04-27T09:29:36;102041.81;;;13.70;46.54
21111;BME280;10713;51.912;4.494;2023-04-27T09:32:01;102040.84;;;13.73;46.51
21111;BME280;10713;51.912;4.494;2023-04-27T09:34:38;102030.50;;;13.90;47.42
21111;BME280;10713;51.912;4.494;2023-04-27T09:37:05;102032.91;;;13.98;46.40
21111;BME280;10713;51.912;4.494;2023-04-27T09:39:31;102024.78;;;14.53;46.25
21111;BME280;10713;51.912;4.494;2023-04-27T09:41:57;102032.09;;;14.71;45.38
21111;BME280;10713;51.912;4.494;2023-04-27T09:44:23;102033.53;;;14.80;45.71
21111;BME280;10713;51.912;4.494;2023-04-27T09:46:50;102018.16;;;14.88;46.28
21111;BME280;10713;51.912;4.494;2023-04-27T09:49:17;102026.34;;;15.05;46.30
21111;BME280;10713;51.912;4.494;2023-04-27T09:51:43;102022.47;;;15.14;45.73
21111;BME280;10713;51.912;4.494;2023-04-27T09:54:10;102028.41;;;15.21;45.88
21111;BME280;10713;51.912;4.494;2023-04-27T10:02:15;102037.47;;;15.15;45.85
21111;BME280;10713;51.912;4.494;2023-04-27T10:07:33;102027.91;;;14.64;45.70
21111;BME280;10713;51.912;4.494;2023-04-27T10:10:01;102045.72;;;14.37;45.02
21111;BME280;10713;51.912;4.494;2023-04-27T10:12:33;102025.16;;;13.92;45.14
21111;BME280;10713;51.912;4.494;2023-04-27T10:15:15;102035.84;;;13.64;45.04
21111;BME280;10713;51.912;4.494;2023-04-27T10:17:49;102023.19;;;13.72;45.69
21111;BME280;10713;51.912;4.494;2023-04-27T10:20:15;102018.44;;;13.82;44.96
21111;BME280;10713;51.912;4.494;2023-04-27T10:22:46;102023.53;;;14.13;45.10
21111;BME280;10713;51.912;4.494;2023-04-27T10:25:19;102022.84;;;14.33;46.41
21111;BME280;10713;51.912;4.494;2023-04-27T10:28:13;102003.47;;;14.78;44.84
21111;BME280;10713;51.912;4.494;2023-04-27T10:30:43;102021.66;;;15.34;43.96
21111;BME280;10713;51.912;4.494;2023-04-27T10:33:16;102010.88;;;15.15;43.39
21111;BME280;10713;51.912;4.494;2023-04-27T10:35:54;102002.84;;;14.95;43.12
21111;BME280;10713;51.912;4.494;2023-04-27T10:38:21;102007.69;;;15.29;42.89
21111;BME280;10713;51.912;4.494;2023-04-27T10:40:54;102012.38;;;15.22;42.58
21111;BME280;10713;51.912;4.494;2023-04-27T10:43:24;101986.66;;;15.23;42.54
21111;BME280;10713;51.912;4.494;2023-04-27T10:45:51;101998.66;;;15.53;42.36
21111;BME280;10713;51.912;4.494;2023-04-27T10:48:16;101996.28;;;15.69;42.44
21111;BME280;10713;51.912;4.494;2023-04-27T10:50:42;101993.50;;;15.28;41.40
21111;BME280;10713;51.912;4.494;2023-04-27T10:53:09;101990.88;;;15.05;42.57
21111;BME280;10713;51.912;4.494;2023-04-27T10:55:35;101989.38;;;15.64;42.21
21111;BME280;10713;51.912;4.494;2023-04-27T10:58:01;101988.25;;;15.91;41.59
21111;BME280;10713;51.912;4.494;2023-04-27T11:00:28;101991.28;;;15.82;41.08
21111;BME280;10713;51.912;4.494;2023-04-27T11:02:56;101991.44;;;15.57;41.43
21111;BME280;10713;51.912;4.494;2023-04-27T11:05:23;101992.19;;;14.95;42.12
21111;BME280;10713;51.912;4.494;2023-04-27T11:08:12;101985.66;;;14.33;42.97
21111;BME280;10713;51.912;4.494;2023-04-27T11:10:43;101981.50;;;14.26;43.74
21111;BME280;10713;51.912;4.494;2023-04-27T11:13:11;101981.97;;;14.37;43.40
21111;BME280;10713;51.912;4.494;2023-04-27T11:18:09;101971.00;;;14.70;44.11
21111;BME280;10713;51.912;4.494;2023-04-27T11:20:35;101987.00;;;14.92;42.99
21111;BME280;10713;51.912;4.494;2023-04-27T11:23:00;101978.38;;;14.85;42.32
21111;BME280;10713;51.912;4.494;2023-04-27T11:25:27;101973.72;;;14.92;42.35
21111;BME280;10713;51.912;4.494;2023-04-27T11:27:52;101986.22;;;15.12;42.50
21111;BME280;10713;51.912;4.494;2023-04-27T11:30:22;101973.91;;;15.09;42.52
21111;BME280;10713;51.912;4.494;2023-04-27T11:32:48;101963.31;;;15.07;42.71
21111;BME280;10713;51.912;4.494;2023-04-27T11:35:14;101956.81;;;14.93;42.47
21111;BME280;10713;51.912;4.494;2023-04-27T11:37:40;101966.38;;;14.51;43.25
21111;BME280;10713;51.912;4.494;2023-04-27T11:40:07;101969.81;;;14.06;43.80
21111;BME280;10713;51.912;4.494;2023-04-27T11:42:33;101962.88;;;14.02;44.34
21111;BME280;10713;51.912;4.494;2023-04-27T11:45:01;101964.22;;;13.89;44.35
21111;BME280;10713;51.912;4.494;2023-04-27T11:47:28;101970.38;;;13.38;43.83
21111;BME280;10713;51.912;4.494;2023-04-27T11:49:56;101958.88;;;13.11;45.55
21111;BME280;10713;51.912;4.494;2023-04-27T11:52:36;101953.66;;;13.07;45.77
21111;BME280;10713;51.912;4.494;2023-04-27T11:55:02;101950.78;;;13.42;44.69
21111;BME280;10713;51.912;4.494;2023-04-27T11:57:33;101969.06;;;13.23;44.46
21111;BME280;10713;51.912;4.494;2023-04-27T12:00:00;101961.47;;;13.12;44.92
21111;BME280;10713;51.912;4.494;2023-04-27T12:02:27;101952.75;;;13.08;45.34
21111;BME280;10713;51.912;4.494;2023-04-27T12:04:53;101945.31;;;13.20;45.45
21111;BME280;10713;51.912;4.494;2023-04-27T12:07:18;101951.50;;;13.19;44.88
21111;BME280;10713;51.912;4.494;2023-04-27T12:09:44;101954.38;;;13.13;44.86
21111;BME280;10713;51.912;4.494;2023-04-27T12:12:10;101949.84;;;13.16;45.17
21111;BME280;10713;51.912;4.494;2023-04-27T12:14:37;101941.63;;;13.24;45.18
21111;BME280;10713;51.912;4.494;2023-04-27T12:17:02;101945.91;;;13.29;45.13
21111;BME280;10713;51.912;4.494;2023-04-27T12:19:28;101939.31;;;13.41;45.32
21111;BME280;10713;51.912;4.494;2023-04-27T12:21:54;101941.19;;;13.39;45.17
21111;BME280;10713;51.912;4.494;2023-04-27T12:24:20;101942.69;;;13.18;45.73
21111;BME280;10713;51.912;4.494;2023-04-27T12:26:46;101930.91;;;13.28;46.38
21111;BME280;10713;51.912;4.494;2023-04-27T12:29:12;101941.81;;;13.46;45.25
21111;BME280;10713;51.912;4.494;2023-04-27T12:31:38;101935.50;;;13.22;44.56
21111;BME280;10713;51.912;4.494;2023-04-27T12:34:03;101935.25;;;13.31;44.56
21111;BME280;10713;51.912;4.494;2023-04-27T12:36:28;101935.38;;;13.28;44.54
21111;BME280;10713;51.912;4.494;2023-04-27T12:38:59;101927.75;;;13.16;45.53
21111;BME280;10713;51.912;4.494;2023-04-27T12:41:35;101930.31;;;13.19;45.93
21111;BME280;10713;51.912;4.494;2023-04-27T12:44:01;101924.34;;;13.12;45.75
21111;BME280;10713;51.912;4.494;2023-04-27T12:46:26;101920.03;;;13.36;45.91
21111;BME280;10713;51.912;4.494;2023-04-27T12:48:51;101923.88;;;13.54;46.36
21111;BME280;10713;51.912;4.494;2023-04-27T12:51:17;101900.72;;;13.59;46.48
21111;BME280;10713;51.912;4.494;2023-04-27T12:53:42;101914.06;;;13.56;45.29
21111;BME280;10713;51.912;4.494;2023-04-27T12:56:08;101918.69;;;13.23;44.96